sensor_id;sensor_type;location;lat;lon;timestamp;P1;durP1;ratioP1;P2;durP2;ratioP2
70985;SDS011;58645;43.068;25.610;2022-11-20T00:01:47;9.45;;;4.22;;
70985;SDS011;58645;43.068;25.610;2022-11-20T00:04:13;7.90;;;2.80;;
70985;SDS011;58645;43.068;25.610;2022-11-20T00:06:39;13.43;;;7.43;;
70985;SDS011;58645;43.068;25.610;2022-11-20T00:09:05;9.80;;;4.88;;
70985;SDS011;58645;43.068;25.610;2022-11-20T00:11:31;11.80;;;3.75;;
70985;SDS011;58645;43.068;25.610;2022-11-20T00:13:58;10.73;;;5.22;;
70985;SDS011;58645;43.068;25.610;2022-11-20T00:16:26;9.20;;;3.97;;
70985;SDS011;58645;43.068;25.610;2022-11-20T00:18:53;9.95;;;5.28;;
70985;SDS011;58645;43.068;25.610;2022-11-20T00:23:46;9.60;;;3.40;;
70985;SDS011;58645;43.068;25.610;2022-11-20T00:26:13;8.00;;;4.10;;
70985;SDS011;58645;43.068;25.610;2022-11-20T00:28:41;7.20;;;2.92;;
70985;SDS011;58645;43.068;25.610;2022-11-20T00:31:09;9.35;;;4.30;;
70985;SDS011;58645;43.068;25.610;2022-11-20T00:33:39;4.57;;;2.30;;
70985;SDS011;58645;43.068;25.610;2022-11-20T00:36:15;5.15;;;2.40;;
70985;SDS011;58645;43.068;25.610;2022-11-20T00:38:43;6.50;;;2.55;;
70985;SDS011;58645;43.068;25.610;2022-11-20T00:41:10;8.10;;;2.95;;
70985;SDS011;58645;43.068;25.610;2022-11-20T00:43:38;5.75;;;2.53;;
70985;SDS011;58645;43.068;25.610;2022-11-20T00:46:05;9.77;;;3.20;;
70985;SDS011;58645;43.068;25.610;2022-11-20T00:48:36;11.77;;;3.80;;
70985;SDS011;58645;43.068;25.610;2022-11-20T00:51:02;6.07;;;3.00;;
70985;SDS011;58645;43.068;25.610;2022-11-20T00:53:27;16.40;;;9.90;;
70985;SDS011;58645;43.068;25.610;2022-11-20T00:55:54;19.73;;;12.43;;
70985;SDS011;58645;43.068;25.610;2022-11-20T00:58:19;15.07;;;9.15;;
70985;SDS011;58645;43.068;25.610;2022-11-20T01:00:46;16.13;;;7.60;;
70985;SDS011;58645;43.068;25.610;2022-11-20T01:03:11;18.25;;;11.20;;
70985;SDS011;58645;43.068;25.610;2022-11-20T01:05:37;9.15;;;5.03;;
70985;SDS011;58645;43.068;25.610;2022-11-20T01:08:03;15.52;;;9.75;;
70985;SDS011;58645;43.068;25.610;2022-11-20T01:10:29;11.02;;;4.70;;
70985;SDS011;58645;43.068;25.610;2022-11-20T01:12:54;12.38;;;6.63;;
70985;SDS011;58645;43.068;25.610;2022-11-20T01:15:39;13.30;;;5.95;;
70985;SDS011;58645;43.068;25.610;2022-11-20T01:18:04;15.18;;;7.80;;
70985;SDS011;58645;43.068;25.610;2022-11-20T01:20:33;6.57;;;3.85;;
70985;SDS011;58645;43.068;25.610;2022-11-20T01:23:00;8.77;;;3.47;;
70985;SDS011;58645;43.068;25.610;2022-11-20T01:25:27;8.43;;;2.95;;
70985;SDS011;58645;43.068;25.610;2022-11-20T01:27:53;8.73;;;3.35;;
70985;SDS011;58645;43.068;25.610;2022-11-20T01:30:19;8.73;;;4.57;;
70985;SDS011;58645;43.068;25.610;2022-11-20T01:32:44;8.65;;;2.88;;
70985;SDS011;58645;43.068;25.610;2022-11-20T01:35:10;8.13;;;2.50;;
70985;SDS011;58645;43.068;25.610;2022-11-20T01:37:36;7.63;;;3.00;;
70985;SDS011;58645;43.068;25.610;2022-11-20T01:40:02;5.38;;;2.40;;
70985;SDS011;58645;43.068;25.610;2022-11-20T01:42:28;9.23;;;2.67;;
70985;SDS011;58645;43.068;25.610;2022-11-20T01:48:15;7.63;;;2.17;;
70985;SDS011;58645;43.068;25.610;2022-11-20T01:50:42;8.02;;;2.78;;
70985;SDS011;58645;43.068;25.610;2022-11-20T01:53:09;8.30;;;2.53;;
70985;SDS011;58645;43.068;25.610;2022-11-20T01:55:39;6.03;;;2.75;;
70985;SDS011;58645;43.068;25.610;2022-11-20T01:58:10;6.30;;;2.90;;
70985;SDS011;58645;43.068;25.610;2022-11-20T02:00:36;6.00;;;3.22;;
70985;SDS011;58645;43.068;25.610;2022-11-20T02:03:03;6.65;;;2.80;;
70985;SDS011;58645;43.068;25.610;2022-11-20T02:05:38;6.35;;;2.20;;
70985;SDS011;58645;43.068;25.610;2022-11-20T02:08:12;6.15;;;2.65;;
70985;SDS011;58645;43.068;25.610;2022-11-20T02:10:38;6.03;;;2.88;;
70985;SDS011;58645;43.068;25.610;2022-11-20T02:13:04;4.78;;;2.15;;
70985;SDS011;58645;43.068;25.610;2022-11-20T02:15:49;7.35;;;2.33;;
70985;SDS011;58645;43.068;25.610;2022-11-20T02:18:16;5.57;;;2.88;;
70985;SDS011;58645;43.068;25.610;2022-11-20T02:20:44;7.97;;;3.05;;
70985;SDS011;58645;43.068;25.610;2022-11-20T02:23:32;6.70;;;2.97;;
70985;SDS011;58645;43.068;25.610;2022-11-20T02:26:09;6.78;;;2.63;;
70985;SDS011;58645;43.068;25.610;2022-11-20T02:28:38;6.90;;;2.88;;
70985;SDS011;58645;43.068;25.610;2022-11-20T02:31:04;5.75;;;1.90;;
70985;SDS011;58645;43.068;25.610;2022-11-20T02:33:30;7.93;;;2.17;;
70985;SDS011;58645;43.068;25.610;2022-11-20T02:35:55;8.80;;;2.30;;
70985;SDS011;58645;43.068;25.610;2022-11-20T02:38:21;8.45;;;2.20;;
70985;SDS011;58645;43.068;25.610;2022-11-20T02:40:47;6.55;;;3.33;;
70985;SDS011;58645;43.068;25.610;2022-11-20T02:43:13;5.63;;;1.75;;
70985;SDS011;58645;43.068;25.610;2022-11-20T02:45:41;7.03;;;2.80;;
70985;SDS011;58645;43.068;25.610;2022-11-20T02:48:06;9.30;;;2.17;;
70985;SDS011;58645;43.068;25.610;2022-11-20T02:50:32;8.20;;;2.20;;
70985;SDS011;58645;43.068;25.610;2022-11-20T02:52:58;7.63;;;2.70;;
70985;SDS011;58645;43.068;25.610;2022-11-20T02:55:24;11.23;;;2.60;;
70985;SDS011;58645;43.068;25.610;2022-11-20T02:57:49;7.43;;;2.88;;
70985;SDS011;58645;43.068;25.610;2022-11-20T03:00:15;8.13;;;2.60;;
70985;SDS011;58645;43.068;25.610;2022-11-20T03:02:41;6.57;;;2.03;;
70985;SDS011;58645;43.068;25.610;2022-11-20T03:05:07;8.25;;;3.00;;
70985;SDS011;58645;43.068;25.610;2022-11-20T03:09:58;7.53;;;2.75;;
70985;SDS011;58645;43.068;25.610;2022-11-20T03:12:24;8.40;;;1.83;;
70985;SDS011;58645;43.068;25.610;2022-11-20T03:14:50;7.82;;;2.47;;
70985;SDS011;58645;43.068;25.610;2022-11-20T03:17:16;5.63;;;2.08;;
70985;SDS011;58645;43.068;25.610;2022-11-20T03:19:41;11.35;;;2.72;;
70985;SDS011;58645;43.068;25.610;2022-11-20T03:22:07;8.13;;;2.35;;
70985;SDS011;58645;43.068;25.610;2022-11-20T03:24:33;7.30;;;2.25;;
70985;SDS011;58645;43.068;25.610;2022-11-20T03:26:59;6.60;;;2.00;;
70985;SDS011;58645;43.068;25.610;2022-11-20T03:29:24;6.10;;;1.88;;
70985;SDS011;58645;43.068;25.610;2022-11-20T03:31:50;10.00;;;2.60;;
70985;SDS011;58645;43.068;25.610;2022-11-20T03:34:16;4.55;;;2.25;;
70985;SDS011;58645;43.068;25.610;2022-11-20T03:36:42;5.25;;;2.05;;
70985;SDS011;58645;43.068;25.610;2022-11-20T03:39:08;5.63;;;1.90;;
70985;SDS011;58645;43.068;25.610;2022-11-20T03:44:04;6.35;;;1.70;;
70985;SDS011;58645;43.068;25.610;2022-11-20T03:46:31;6.32;;;1.70;;
70985;SDS011;58645;43.068;25.610;2022-11-20T03:48:58;6.55;;;2.28;;
70985;SDS011;58645;43.068;25.610;2022-11-20T03:51:27;6.32;;;1.67;;
70985;SDS011;58645;43.068;25.610;2022-11-20T03:53:56;5.15;;;2.08;;
70985;SDS011;58645;43.068;25.610;2022-11-20T03:56:24;10.00;;;1.70;;
70985;SDS011;58645;43.068;25.610;2022-11-20T03:58:52;6.97;;;2.60;;
70985;SDS011;58645;43.068;25.610;2022-11-20T04:01:18;5.97;;;1.65;;
70985;SDS011;58645;43.068;25.610;2022-11-20T04:03:46;8.02;;;2.45;;
70985;SDS011;58645;43.068;25.610;2022-11-20T04:06:14;5.30;;;2.15;;
70985;SDS011;58645;43.068;25.610;2022-11-20T04:08:45;6.13;;;1.80;;
70985;SDS011;58645;43.068;25.610;2022-11-20T04:13:41;6.65;;;2.50;;
70985;SDS011;58645;43.068;25.610;2022-11-20T04:16:08;7.47;;;2.13;;
70985;SDS011;58645;43.068;25.610;2022-11-20T04:18:35;6.78;;;2.03;;
70985;SDS011;58645;43.068;25.610;2022-11-20T04:21:01;6.82;;;2.80;;
70985;SDS011;58645;43.068;25.610;2022-11-20T04:23:28;12.63;;;6.03;;
70985;SDS011;58645;43.068;25.610;2022-11-20T04:25:54;17.20;;;9.57;;
70985;SDS011;58645;43.068;25.610;2022-11-20T04:28:20;12.70;;;6.20;;
70985;SDS011;58645;43.068;25.610;2022-11-20T04:30:45;7.78;;;3.85;;
70985;SDS011;58645;43.068;25.610;2022-11-20T04:33:11;10.82;;;4.40;;
70985;SDS011;58645;43.068;25.610;2022-11-20T04:35:37;14.00;;;7.15;;
70985;SDS011;58645;43.068;25.610;2022-11-20T04:38:03;18.67;;;9.20;;
70985;SDS011;58645;43.068;25.610;2022-11-20T04:40:29;21.90;;;11.13;;
70985;SDS011;58645;43.068;25.610;2022-11-20T04:42:55;29.58;;;16.08;;
70985;SDS011;58645;43.068;25.610;2022-11-20T04:45:22;15.88;;;8.10;;
70985;SDS011;58645;43.068;25.610;2022-11-20T04:50:13;8.27;;;2.35;;
70985;SDS011;58645;43.068;25.610;2022-11-20T04:52:39;6.50;;;2.15;;
70985;SDS011;58645;43.068;25.610;2022-11-20T04:55:05;8.90;;;2.83;;
70985;SDS011;58645;43.068;25.610;2022-11-20T04:57:31;4.40;;;1.50;;
70985;SDS011;58645;43.068;25.610;2022-11-20T04:59:57;4.97;;;1.40;;
70985;SDS011;58645;43.068;25.610;2022-11-20T05:02:23;6.78;;;2.22;;
70985;SDS011;58645;43.068;25.610;2022-11-20T05:04:48;6.57;;;1.92;;
70985;SDS011;58645;43.068;25.610;2022-11-20T05:07:14;5.97;;;2.05;;
70985;SDS011;58645;43.068;25.610;2022-11-20T05:09:40;4.47;;;1.20;;
70985;SDS011;58645;43.068;25.610;2022-11-20T05:12:07;6.93;;;2.05;;
70985;SDS011;58645;43.068;25.610;2022-11-20T05:14:33;11.57;;;3.42;;
70985;SDS011;58645;43.068;25.610;2022-11-20T05:16:59;12.43;;;5.57;;
70985;SDS011;58645;43.068;25.610;2022-11-20T05:19:25;25.27;;;15.18;;
70985;SDS011;58645;43.068;25.610;2022-11-20T05:21:50;27.83;;;15.00;;
70985;SDS011;58645;43.068;25.610;2022-11-20T05:24:16;27.08;;;14.40;;
70985;SDS011;58645;43.068;25.610;2022-11-20T05:26:42;37.97;;;23.00;;
70985;SDS011;58645;43.068;25.610;2022-11-20T05:29:09;18.55;;;9.90;;
70985;SDS011;58645;43.068;25.610;2022-11-20T05:31:38;31.90;;;19.52;;
70985;SDS011;58645;43.068;25.610;2022-11-20T05:34:05;38.13;;;21.90;;
70985;SDS011;58645;43.068;25.610;2022-11-20T05:36:31;38.80;;;25.60;;
70985;SDS011;58645;43.068;25.610;2022-11-20T05:38:57;32.42;;;18.42;;
70985;SDS011;58645;43.068;25.610;2022-11-20T05:41:23;77.60;;;45.55;;
70985;SDS011;58645;43.068;25.610;2022-11-20T05:43:49;57.55;;;34.83;;
70985;SDS011;58645;43.068;25.610;2022-11-20T05:48:43;18.95;;;8.90;;
70985;SDS011;58645;43.068;25.610;2022-11-20T05:51:11;43.58;;;24.70;;
70985;SDS011;58645;43.068;25.610;2022-11-20T05:53:38;22.15;;;11.35;;
70985;SDS011;58645;43.068;25.610;2022-11-20T05:56:05;20.48;;;10.75;;
70985;SDS011;58645;43.068;25.610;2022-11-20T05:58:33;27.90;;;15.98;;
70985;SDS011;58645;43.068;25.610;2022-11-20T06:03:35;31.65;;;19.23;;
70985;SDS011;58645;43.068;25.610;2022-11-20T06:06:02;10.40;;;5.07;;
70985;SDS011;58645;43.068;25.610;2022-11-20T06:08:29;8.75;;;2.72;;
70985;SDS011;58645;43.068;25.610;2022-11-20T06:10:55;10.10;;;5.72;;
70985;SDS011;58645;43.068;25.610;2022-11-20T06:13:21;10.52;;;4.28;;
70985;SDS011;58645;43.068;25.610;2022-11-20T06:15:48;11.30;;;4.72;;
70985;SDS011;58645;43.068;25.610;2022-11-20T06:18:15;9.70;;;2.78;;
70985;SDS011;58645;43.068;25.610;2022-11-20T06:20:40;7.60;;;3.80;;
70985;SDS011;58645;43.068;25.610;2022-11-20T06:23:06;6.68;;;1.92;;
70985;SDS011;58645;43.068;25.610;2022-11-20T06:25:32;5.03;;;1.42;;
70985;SDS011;58645;43.068;25.610;2022-11-20T06:27:57;3.35;;;1.45;;
70985;SDS011;58645;43.068;25.610;2022-11-20T06:30:23;5.60;;;2.50;;
70985;SDS011;58645;43.068;25.610;2022-11-20T06:32:49;6.20;;;3.72;;
70985;SDS011;58645;43.068;25.610;2022-11-20T06:35:14;5.93;;;3.55;;
70985;SDS011;58645;43.068;25.610;2022-11-20T06:37:40;7.30;;;4.43;;
70985;SDS011;58645;43.068;25.610;2022-11-20T06:40:06;9.32;;;5.07;;
70985;SDS011;58645;43.068;25.610;2022-11-20T06:42:32;10.75;;;5.47;;
70985;SDS011;58645;43.068;25.610;2022-11-20T06:44:58;12.80;;;6.95;;
70985;SDS011;58645;43.068;25.610;2022-11-20T06:47:24;10.80;;;6.88;;
70985;SDS011;58645;43.068;25.610;2022-11-20T06:49:49;9.18;;;6.63;;
70985;SDS011;58645;43.068;25.610;2022-11-20T06:52:15;11.25;;;7.35;;
70985;SDS011;58645;43.068;25.610;2022-11-20T06:54:40;8.70;;;5.50;;
70985;SDS011;58645;43.068;25.610;2022-11-20T06:57:06;10.07;;;6.93;;
70985;SDS011;58645;43.068;25.610;2022-11-20T06:59:32;10.75;;;7.53;;
70985;SDS011;58645;43.068;25.610;2022-11-20T07:01:57;12.32;;;7.88;;
70985;SDS011;58645;43.068;25.610;2022-11-20T07:04:23;11.48;;;7.63;;
70985;SDS011;58645;43.068;25.610;2022-11-20T07:06:49;12.48;;;7.97;;
70985;SDS011;58645;43.068;25.610;2022-11-20T07:09:15;12.90;;;6.97;;
70985;SDS011;58645;43.068;25.610;2022-11-20T07:11:41;13.90;;;8.90;;
70985;SDS011;58645;43.068;25.610;2022-11-20T07:14:07;14.82;;;9.32;;
70985;SDS011;58645;43.068;25.610;2022-11-20T07:16:32;15.43;;;9.55;;
70985;SDS011;58645;43.068;25.610;2022-11-20T07:18:58;16.17;;;9.77;;
70985;SDS011;58645;43.068;25.610;2022-11-20T07:21:24;18.70;;;11.13;;
70985;SDS011;58645;43.068;25.610;2022-11-20T07:23:49;21.15;;;11.43;;
70985;SDS011;58645;43.068;25.610;2022-11-20T07:26:15;19.13;;;11.00;;
70985;SDS011;58645;43.068;25.610;2022-11-20T07:28:43;19.50;;;10.60;;
70985;SDS011;58645;43.068;25.610;2022-11-20T07:31:10;19.80;;;10.38;;
70985;SDS011;58645;43.068;25.610;2022-11-20T07:33:37;20.02;;;12.02;;
70985;SDS011;58645;43.068;25.610;2022-11-20T07:36:03;22.17;;;11.50;;
70985;SDS011;58645;43.068;25.610;2022-11-20T07:40:58;27.02;;;11.23;;
70985;SDS011;58645;43.068;25.610;2022-11-20T07:43:26;22.67;;;11.65;;
70985;SDS011;58645;43.068;25.610;2022-11-20T07:45:54;23.60;;;11.82;;
70985;SDS011;58645;43.068;25.610;2022-11-20T07:48:21;25.33;;;12.43;;
70985;SDS011;58645;43.068;25.610;2022-11-20T07:50:47;23.00;;;11.07;;
70985;SDS011;58645;43.068;25.610;2022-11-20T07:53:13;25.85;;;12.88;;
70985;SDS011;58645;43.068;25.610;2022-11-20T07:55:39;29.20;;;12.48;;
70985;SDS011;58645;43.068;25.610;2022-11-20T07:58:04;25.15;;;12.13;;
70985;SDS011;58645;43.068;25.610;2022-11-20T08:00:30;25.90;;;12.05;;
70985;SDS011;58645;43.068;25.610;2022-11-20T08:02:56;22.83;;;12.32;;
70985;SDS011;58645;43.068;25.610;2022-11-20T08:05:22;23.70;;;11.77;;
70985;SDS011;58645;43.068;25.610;2022-11-20T08:07:48;22.98;;;11.50;;
70985;SDS011;58645;43.068;25.610;2022-11-20T08:10:14;22.92;;;11.20;;
70985;SDS011;58645;43.068;25.610;2022-11-20T08:12:48;27.20;;;12.57;;
70985;SDS011;58645;43.068;25.610;2022-11-20T08:15:34;21.80;;;11.40;;
70985;SDS011;58645;43.068;25.610;2022-11-20T08:18:07;23.67;;;12.07;;
70985;SDS011;58645;43.068;25.610;2022-11-20T08:20:35;26.73;;;12.55;;
70985;SDS011;58645;43.068;25.610;2022-11-20T08:23:03;24.92;;;12.20;;
70985;SDS011;58645;43.068;25.610;2022-11-20T08:25:36;22.45;;;11.13;;
70985;SDS011;58645;43.068;25.610;2022-11-20T08:28:04;21.83;;;10.98;;
70985;SDS011;58645;43.068;25.610;2022-11-20T08:30:31;21.27;;;11.77;;
70985;SDS011;58645;43.068;25.610;2022-11-20T08:33:01;23.00;;;11.55;;
70985;SDS011;58645;43.068;25.610;2022-11-20T08:35:32;20.42;;;11.40;;
70985;SDS011;58645;43.068;25.610;2022-11-20T08:37:59;23.45;;;11.20;;
70985;SDS011;58645;43.068;25.610;2022-11-20T08:40:25;23.65;;;12.63;;
70985;SDS011;58645;43.068;25.610;2022-11-20T08:42:51;21.38;;;11.73;;
70985;SDS011;58645;43.068;25.610;2022-11-20T08:45:17;21.17;;;10.95;;
70985;SDS011;58645;43.068;25.610;2022-11-20T08:47:44;20.20;;;11.23;;
70985;SDS011;58645;43.068;25.610;2022-11-20T08:50:10;22.95;;;11.85;;
70985;SDS011;58645;43.068;25.610;2022-11-20T08:52:37;21.88;;;11.10;;
70985;SDS011;58645;43.068;25.610;2022-11-20T08:55:04;26.70;;;13.25;;
70985;SDS011;58645;43.068;25.610;2022-11-20T08:59:56;23.23;;;11.40;;
70985;SDS011;58645;43.068;25.610;2022-11-20T09:02:22;21.15;;;12.02;;
70985;SDS011;58645;43.068;25.610;2022-11-20T09:04:48;26.60;;;13.00;;
70985;SDS011;58645;43.068;25.610;2022-11-20T09:07:14;27.05;;;14.95;;
70985;SDS011;58645;43.068;25.610;2022-11-20T09:09:39;24.75;;;13.00;;
70985;SDS011;58645;43.068;25.610;2022-11-20T09:12:05;24.70;;;12.93;;
70985;SDS011;58645;43.068;25.610;2022-11-20T09:14:31;22.38;;;12.32;;
70985;SDS011;58645;43.068;25.610;2022-11-20T09:16:57;23.88;;;12.75;;
70985;SDS011;58645;43.068;25.610;2022-11-20T09:19:23;22.65;;;11.70;;
70985;SDS011;58645;43.068;25.610;2022-11-20T09:21:49;24.98;;;13.10;;
70985;SDS011;58645;43.068;25.610;2022-11-20T09:24:15;24.73;;;12.10;;
70985;SDS011;58645;43.068;25.610;2022-11-20T09:26:41;20.58;;;11.05;;
70985;SDS011;58645;43.068;25.610;2022-11-20T09:29:07;25.48;;;12.38;;
70985;SDS011;58645;43.068;25.610;2022-11-20T09:31:33;22.63;;;11.73;;
70985;SDS011;58645;43.068;25.610;2022-11-20T09:33:58;22.73;;;11.18;;
70985;SDS011;58645;43.068;25.610;2022-11-20T09:36:24;22.83;;;11.43;;
70985;SDS011;58645;43.068;25.610;2022-11-20T09:38:50;25.90;;;11.70;;
70985;SDS011;58645;43.068;25.610;2022-11-20T09:41:25;21.42;;;11.65;;
70985;SDS011;58645;43.068;25.610;2022-11-20T09:44:05;22.60;;;10.88;;
70985;SDS011;58645;43.068;25.610;2022-11-20T09:54:48;20.77;;;12.05;;
70985;SDS011;58645;43.068;25.610;2022-11-20T09:57:19;18.88;;;11.10;;
70985;SDS011;58645;43.068;25.610;2022-11-20T09:59:49;19.63;;;11.80;;
70985;SDS011;58645;43.068;25.610;2022-11-20T10:05:03;21.92;;;12.10;;
70985;SDS011;58645;43.068;25.610;2022-11-20T10:07:37;23.65;;;11.43;;
70985;SDS011;58645;43.068;25.610;2022-11-20T10:30:33;22.38;;;11.73;;
70985;SDS011;58645;43.068;25.610;2022-11-20T10:33:13;19.45;;;10.75;;
70985;SDS011;58645;43.068;25.610;2022-11-20T10:35:45;23.08;;;13.48;;
70985;SDS011;58645;43.068;25.610;2022-11-20T10:38:22;23.55;;;13.00;;
70985;SDS011;58645;43.068;25.610;2022-11-20T10:40:56;25.02;;;12.20;;
70985;SDS011;58645;43.068;25.610;2022-11-20T10:43:45;20.10;;;11.73;;
70985;SDS011;58645;43.068;25.610;2022-11-20T10:46:19;22.88;;;12.82;;
70985;SDS011;58645;43.068;25.610;2022-11-20T10:48:49;25.13;;;14.15;;
70985;SDS011;58645;43.068;25.610;2022-11-20T10:59:12;20.40;;;11.75;;
70985;SDS011;58645;43.068;25.610;2022-11-20T11:01:57;25.02;;;13.27;;
70985;SDS011;58645;43.068;25.610;2022-11-20T11:07:06;31.80;;;18.85;;
70985;SDS011;58645;43.068;25.610;2022-11-20T11:09:42;22.27;;;12.32;;
70985;SDS011;58645;43.068;25.610;2022-11-20T11:12:11;21.63;;;12.63;;
70985;SDS011;58645;43.068;25.610;2022-11-20T11:14:46;23.92;;;12.85;;
70985;SDS011;58645;43.068;25.610;2022-11-20T11:17:21;20.23;;;10.93;;
70985;SDS011;58645;43.068;25.610;2022-11-20T11:22:46;27.20;;;15.07;;
70985;SDS011;58645;43.068;25.610;2022-11-20T11:25:28;25.98;;;16.17;;
70985;SDS011;58645;43.068;25.610;2022-11-20T11:28:02;20.52;;;12.02;;
70985;SDS011;58645;43.068;25.610;2022-11-20T11:30:30;22.38;;;12.02;;
70985;SDS011;58645;43.068;25.610;2022-11-20T11:33:09;20.65;;;11.55;;
70985;SDS011;58645;43.068;25.610;2022-11-20T11:35:45;19.17;;;10.88;;
70985;SDS011;58645;43.068;25.610;2022-11-20T11:38:21;18.85;;;11.43;;
70985;SDS011;58645;43.068;25.610;2022-11-20T11:41:20;20.50;;;11.00;;
70985;SDS011;58645;43.068;25.610;2022-11-20T11:43:54;17.92;;;11.02;;
70985;SDS011;58645;43.068;25.610;2022-11-20T11:46:43;19.75;;;12.27;;
70985;SDS011;58645;43.068;25.610;2022-11-20T11:49:17;21.05;;;11.80;;
70985;SDS011;58645;43.068;25.610;2022-11-20T11:54:34;21.98;;;12.38;;
70985;SDS011;58645;43.068;25.610;2022-11-20T11:57:10;20.48;;;11.35;;
70985;SDS011;58645;43.068;25.610;2022-11-20T12:02:31;20.90;;;11.98;;
70985;SDS011;58645;43.068;25.610;2022-11-20T12:04:59;21.80;;;11.48;;
70985;SDS011;58645;43.068;25.610;2022-11-20T12:07:43;20.88;;;11.85;;
70985;SDS011;58645;43.068;25.610;2022-11-20T12:10:21;22.23;;;11.35;;
70985;SDS011;58645;43.068;25.610;2022-11-20T12:13:01;21.13;;;11.80;;
70985;SDS011;58645;43.068;25.610;2022-11-20T12:15:44;20.58;;;11.20;;
70985;SDS011;58645;43.068;25.610;2022-11-20T12:18:14;18.67;;;10.55;;
70985;SDS011;58645;43.068;25.610;2022-11-20T12:20:44;24.55;;;12.90;;
70985;SDS011;58645;43.068;25.610;2022-11-20T12:23:28;20.17;;;11.48;;
70985;SDS011;58645;43.068;25.610;2022-11-20T12:26:12;21.52;;;12.07;;
70985;SDS011;58645;43.068;25.610;2022-11-20T12:34:13;19.67;;;12.10;;
70985;SDS011;58645;43.068;25.610;2022-11-20T12:37:04;20.73;;;11.82;;
70985;SDS011;58645;43.068;25.610;2022-11-20T12:39:48;22.90;;;12.43;;
70985;SDS011;58645;43.068;25.610;2022-11-20T12:43:01;22.30;;;12.52;;
70985;SDS011;58645;43.068;25.610;2022-11-20T12:45:46;23.55;;;13.77;;
70985;SDS011;58645;43.068;25.610;2022-11-20T12:48:30;26.45;;;13.95;;
70985;SDS011;58645;43.068;25.610;2022-11-20T13:07:45;28.13;;;14.68;;
70985;SDS011;58645;43.068;25.610;2022-11-20T13:10:46;28.25;;;14.75;;
70985;SDS011;58645;43.068;25.610;2022-11-20T13:16:14;25.45;;;13.35;;
70985;SDS011;58645;43.068;25.610;2022-11-20T13:18:47;26.35;;;14.90;;
70985;SDS011;58645;43.068;25.610;2022-11-20T13:21:34;28.67;;;13.93;;
70985;SDS011;58645;43.068;25.610;2022-11-20T13:24:06;26.90;;;15.18;;
70985;SDS011;58645;43.068;25.610;2022-11-20T13:26:45;28.25;;;15.05;;
70985;SDS011;58645;43.068;25.610;2022-11-20T13:29:16;29.52;;;15.55;;
70985;SDS011;58645;43.068;25.610;2022-11-20T13:31:44;29.48;;;15.90;;
70985;SDS011;58645;43.068;25.610;2022-11-20T13:34:12;30.88;;;15.65;;
70985;SDS011;58645;43.068;25.610;2022-11-20T13:36:49;25.35;;;13.52;;
70985;SDS011;58645;43.068;25.610;2022-11-20T13:39:23;28.90;;;15.55;;
70985;SDS011;58645;43.068;25.610;2022-11-20T13:41:54;26.92;;;14.75;;
70985;SDS011;58645;43.068;25.610;2022-11-20T13:44:27;29.38;;;15.30;;
70985;SDS011;58645;43.068;25.610;2022-11-20T13:47:17;27.17;;;14.88;;
70985;SDS011;58645;43.068;25.610;2022-11-20T13:49:49;31.52;;;16.25;;
70985;SDS011;58645;43.068;25.610;2022-11-20T13:54:57;31.55;;;17.90;;
70985;SDS011;58645;43.068;25.610;2022-11-20T14:00:48;34.70;;;17.95;;
70985;SDS011;58645;43.068;25.610;2022-11-20T14:03:21;35.83;;;16.95;;
70985;SDS011;58645;43.068;25.610;2022-11-20T14:05:50;33.85;;;18.63;;
70985;SDS011;58645;43.068;25.610;2022-11-20T14:08:27;31.05;;;17.73;;
70985;SDS011;58645;43.068;25.610;2022-11-20T14:11:18;32.03;;;17.20;;
70985;SDS011;58645;43.068;25.610;2022-11-20T14:16:24;36.03;;;18.30;;
70985;SDS011;58645;43.068;25.610;2022-11-20T14:18:52;34.25;;;18.58;;
70985;SDS011;58645;43.068;25.610;2022-11-20T14:21:23;37.33;;;19.85;;
70985;SDS011;58645;43.068;25.610;2022-11-20T14:24:06;35.30;;;18.77;;
70985;SDS011;58645;43.068;25.610;2022-11-20T14:26:35;38.30;;;20.05;;
70985;SDS011;58645;43.068;25.610;2022-11-20T14:29:11;42.42;;;21.70;;
70985;SDS011;58645;43.068;25.610;2022-11-20T14:31:41;43.88;;;22.45;;
70985;SDS011;58645;43.068;25.610;2022-11-20T14:34:16;47.55;;;24.67;;
70985;SDS011;58645;43.068;25.610;2022-11-20T14:36:47;50.10;;;26.05;;
70985;SDS011;58645;43.068;25.610;2022-11-20T14:39:20;47.40;;;21.40;;
70985;SDS011;58645;43.068;25.610;2022-11-20T14:41:53;32.38;;;17.88;;
70985;SDS011;58645;43.068;25.610;2022-11-20T14:44:20;26.27;;;13.88;;
70985;SDS011;58645;43.068;25.610;2022-11-20T14:46:57;28.73;;;14.27;;
70985;SDS011;58645;43.068;25.610;2022-11-20T14:49:25;30.83;;;15.07;;
70985;SDS011;58645;43.068;25.610;2022-11-20T14:52:01;20.25;;;10.90;;
70985;SDS011;58645;43.068;25.610;2022-11-20T14:54:44;20.38;;;8.60;;
70985;SDS011;58645;43.068;25.610;2022-11-20T14:57:27;15.25;;;8.02;;
70985;SDS011;58645;43.068;25.610;2022-11-20T15:02:40;27.25;;;12.05;;
70985;SDS011;58645;43.068;25.610;2022-11-20T15:05:07;25.08;;;12.00;;
70985;SDS011;58645;43.068;25.610;2022-11-20T15:07:37;21.98;;;10.23;;
70985;SDS011;58645;43.068;25.610;2022-11-20T15:10:12;27.70;;;13.73;;
70985;SDS011;58645;43.068;25.610;2022-11-20T15:12:49;18.65;;;10.40;;
70985;SDS011;58645;43.068;25.610;2022-11-20T15:15:50;22.38;;;12.43;;
70985;SDS011;58645;43.068;25.610;2022-11-20T15:18:12;24.20;;;12.80;;
70985;SDS011;58645;43.068;25.610;2022-11-20T15:20:46;26.95;;;13.73;;
70985;SDS011;58645;43.068;25.610;2022-11-20T15:23:12;31.75;;;16.25;;
70985;SDS011;58645;43.068;25.610;2022-11-20T15:25:40;31.63;;;17.48;;
70985;SDS011;58645;43.068;25.610;2022-11-20T15:28:19;37.08;;;16.17;;
70985;SDS011;58645;43.068;25.610;2022-11-20T15:30:54;34.72;;;14.85;;
70985;SDS011;58645;43.068;25.610;2022-11-20T15:35:46;23.65;;;13.15;;
70985;SDS011;58645;43.068;25.610;2022-11-20T15:38:12;33.00;;;14.88;;
70985;SDS011;58645;43.068;25.610;2022-11-20T15:40:38;29.50;;;15.20;;
70985;SDS011;58645;43.068;25.610;2022-11-20T15:43:04;28.10;;;14.90;;
70985;SDS011;58645;43.068;25.610;2022-11-20T15:45:42;35.20;;;14.98;;
70985;SDS011;58645;43.068;25.610;2022-11-20T15:48:17;29.73;;;14.50;;
70985;SDS011;58645;43.068;25.610;2022-11-20T15:53:20;24.50;;;12.70;;
70985;SDS011;58645;43.068;25.610;2022-11-20T15:55:45;22.65;;;12.32;;
70985;SDS011;58645;43.068;25.610;2022-11-20T15:58:11;37.22;;;19.50;;
70985;SDS011;58645;43.068;25.610;2022-11-20T16:00:37;31.13;;;17.23;;
70985;SDS011;58645;43.068;25.610;2022-11-20T16:03:03;32.35;;;15.60;;
70985;SDS011;58645;43.068;25.610;2022-11-20T16:05:29;36.10;;;15.38;;
70985;SDS011;58645;43.068;25.610;2022-11-20T16:07:55;165.63;;;18.05;;
70985;SDS011;58645;43.068;25.610;2022-11-20T16:10:22;42.08;;;20.25;;
70985;SDS011;58645;43.068;25.610;2022-11-20T16:15:32;35.92;;;16.83;;
70985;SDS011;58645;43.068;25.610;2022-11-20T16:18:11;29.15;;;15.63;;
70985;SDS011;58645;43.068;25.610;2022-11-20T16:20:39;20.58;;;11.02;;
70985;SDS011;58645;43.068;25.610;2022-11-20T16:23:05;19.90;;;12.15;;
70985;SDS011;58645;43.068;25.610;2022-11-20T16:27:57;27.48;;;15.20;;
70985;SDS011;58645;43.068;25.610;2022-11-20T16:30:23;23.77;;;13.77;;
70985;SDS011;58645;43.068;25.610;2022-11-20T16:32:49;29.80;;;14.68;;
70985;SDS011;58645;43.068;25.610;2022-11-20T16:35:15;28.95;;;14.73;;